sensor_id;sensor_type;location;lat;lon;timestamp;P1;durP1;ratioP1;P2;durP2;ratioP2
54517;SDS011;40423;53.176;6.002;2023-02-17T00:01:58;64.93;;;27.30;;
54517;SDS011;40423;53.176;6.002;2023-02-17T00:04:23;68.38;;;29.40;;
54517;SDS011;40423;53.176;6.002;2023-02-17T00:06:51;61.60;;;27.85;;
54517;SDS011;40423;53.176;6.002;2023-02-17T00:09:17;68.60;;;27.13;;
54517;SDS011;40423;53.176;6.002;2023-02-17T00:11:43;58.25;;;26.98;;
54517;SDS011;40423;53.176;6.002;2023-02-17T00:14:10;61.38;;;27.50;;
54517;SDS011;40423;53.176;6.002;2023-02-17T00:16:37;61.35;;;27.45;;
54517;SDS011;40423;53.176;6.002;2023-02-17T00:19:02;62.42;;;27.55;;
54517;SDS011;40423;53.176;6.002;2023-02-17T00:21:48;63.80;;;26.63;;
54517;SDS011;40423;53.176;6.002;2023-02-17T00:24:14;60.70;;;26.30;;
54517;SDS011;40423;53.176;6.002;2023-02-17T00:26:40;65.95;;;28.23;;
54517;SDS011;40423;53.176;6.002;2023-02-17T00:29:06;62.78;;;26.60;;
54517;SDS011;40423;53.176;6.002;2023-02-17T00:31:32;67.00;;;30.13;;
54517;SDS011;40423;53.176;6.002;2023-02-17T00:33:58;59.65;;;29.05;;
54517;SDS011;40423;53.176;6.002;2023-02-17T00:36:24;69.18;;;30.30;;
54517;SDS011;40423;53.176;6.002;2023-02-17T00:38:51;67.03;;;30.52;;
54517;SDS011;40423;53.176;6.002;2023-02-17T00:41:18;75.22;;;32.67;;
54517;SDS011;40423;53.176;6.002;2023-02-17T00:43:44;65.43;;;30.80;;
54517;SDS011;40423;53.176;6.002;2023-02-17T00:46:11;65.07;;;31.17;;
54517;SDS011;40423;53.176;6.002;2023-02-17T00:48:37;69.65;;;30.30;;
54517;SDS011;40423;53.176;6.002;2023-02-17T00:51:03;74.93;;;32.50;;
54517;SDS011;40423;53.176;6.002;2023-02-17T00:53:29;77.22;;;31.90;;
54517;SDS011;40423;53.176;6.002;2023-02-17T00:55:55;67.95;;;30.52;;
54517;SDS011;40423;53.176;6.002;2023-02-17T00:58:21;67.15;;;31.35;;
54517;SDS011;40423;53.176;6.002;2023-02-17T01:00:46;69.40;;;30.95;;
54517;SDS011;40423;53.176;6.002;2023-02-17T01:03:12;58.60;;;30.08;;
54517;SDS011;40423;53.176;6.002;2023-02-17T01:05:46;63.90;;;28.50;;
54517;SDS011;40423;53.176;6.002;2023-02-17T01:08:12;59.85;;;28.35;;
54517;SDS011;40423;53.176;6.002;2023-02-17T01:10:39;59.78;;;30.38;;
54517;SDS011;40423;53.176;6.002;2023-02-17T01:13:06;65.25;;;29.40;;
54517;SDS011;40423;53.176;6.002;2023-02-17T01:15:46;60.75;;;29.73;;
54517;SDS011;40423;53.176;6.002;2023-02-17T01:18:14;58.20;;;26.75;;
54517;SDS011;40423;53.176;6.002;2023-02-17T01:20:41;58.42;;;28.17;;
54517;SDS011;40423;53.176;6.002;2023-02-17T01:23:07;60.03;;;28.85;;
54517;SDS011;40423;53.176;6.002;2023-02-17T01:25:38;56.63;;;28.02;;
54517;SDS011;40423;53.176;6.002;2023-02-17T01:28:05;59.75;;;28.40;;
54517;SDS011;40423;53.176;6.002;2023-02-17T01:30:32;55.17;;;27.73;;
54517;SDS011;40423;53.176;6.002;2023-02-17T01:32:58;53.72;;;27.23;;
54517;SDS011;40423;53.176;6.002;2023-02-17T01:35:23;49.40;;;25.58;;
54517;SDS011;40423;53.176;6.002;2023-02-17T01:37:49;49.47;;;25.77;;
54517;SDS011;40423;53.176;6.002;2023-02-17T01:40:15;60.63;;;26.90;;
54517;SDS011;40423;53.176;6.002;2023-02-17T01:42:41;56.85;;;26.30;;
54517;SDS011;40423;53.176;6.002;2023-02-17T01:47:50;53.28;;;25.35;;
54517;SDS011;40423;53.176;6.002;2023-02-17T01:50:24;57.67;;;26.48;;
54517;SDS011;40423;53.176;6.002;2023-02-17T01:52:54;53.88;;;25.50;;
54517;SDS011;40423;53.176;6.002;2023-02-17T01:55:21;59.33;;;25.88;;
54517;SDS011;40423;53.176;6.002;2023-02-17T01:57:48;58.20;;;26.30;;
54517;SDS011;40423;53.176;6.002;2023-02-17T02:00:17;53.40;;;28.55;;
54517;SDS011;40423;53.176;6.002;2023-02-17T02:02:46;61.58;;;26.77;;
54517;SDS011;40423;53.176;6.002;2023-02-17T02:05:13;56.53;;;26.95;;
54517;SDS011;40423;53.176;6.002;2023-02-17T02:07:41;54.63;;;25.83;;
54517;SDS011;40423;53.176;6.002;2023-02-17T02:10:08;61.13;;;28.30;;
54517;SDS011;40423;53.176;6.002;2023-02-17T02:12:36;57.78;;;28.13;;
54517;SDS011;40423;53.176;6.002;2023-02-17T02:15:05;53.00;;;28.23;;
54517;SDS011;40423;53.176;6.002;2023-02-17T02:26:37;60.97;;;27.50;;
54517;SDS011;40423;53.176;6.002;2023-02-17T02:34:46;48.20;;;26.27;;
54517;SDS011;40423;53.176;6.002;2023-02-17T02:37:19;51.00;;;25.88;;
54517;SDS011;40423;53.176;6.002;2023-02-17T02:40:13;54.22;;;26.13;;
54517;SDS011;40423;53.176;6.002;2023-02-17T02:42:42;52.42;;;26.25;;
54517;SDS011;40423;53.176;6.002;2023-02-17T02:45:10;54.35;;;27.52;;
54517;SDS011;40423;53.176;6.002;2023-02-17T02:50:18;55.97;;;27.55;;
54517;SDS011;40423;53.176;6.002;2023-02-17T02:55:42;49.60;;;27.15;;
54517;SDS011;40423;53.176;6.002;2023-02-17T02:58:26;57.13;;;26.77;;
54517;SDS011;40423;53.176;6.002;2023-02-17T03:08:55;57.88;;;26.02;;
54517;SDS011;40423;53.176;6.002;2023-02-17T03:11:27;56.13;;;27.15;;
54517;SDS011;40423;53.176;6.002;2023-02-17T03:14:02;57.15;;;27.33;;
54517;SDS011;40423;53.176;6.002;2023-02-17T03:16:30;55.05;;;27.02;;
54517;SDS011;40423;53.176;6.002;2023-02-17T03:18:59;50.42;;;24.95;;
54517;SDS011;40423;53.176;6.002;2023-02-17T03:21:25;52.25;;;26.75;;
54517;SDS011;40423;53.176;6.002;2023-02-17T03:24:00;52.35;;;26.67;;
54517;SDS011;40423;53.176;6.002;2023-02-17T03:26:26;51.50;;;26.25;;
54517;SDS011;40423;53.176;6.002;2023-02-17T03:28:51;57.28;;;27.23;;
54517;SDS011;40423;53.176;6.002;2023-02-17T03:31:17;55.40;;;26.98;;
54517;SDS011;40423;53.176;6.002;2023-02-17T03:33:43;57.28;;;27.67;;
54517;SDS011;40423;53.176;6.002;2023-02-17T03:36:08;54.58;;;26.42;;
54517;SDS011;40423;53.176;6.002;2023-02-17T03:38:34;51.28;;;25.83;;
54517;SDS011;40423;53.176;6.002;2023-02-17T03:41:00;50.33;;;25.15;;
54517;SDS011;40423;53.176;6.002;2023-02-17T03:43:25;51.85;;;25.35;;
54517;SDS011;40423;53.176;6.002;2023-02-17T03:45:51;53.00;;;24.70;;
54517;SDS011;40423;53.176;6.002;2023-02-17T03:48:17;54.55;;;25.92;;
54517;SDS011;40423;53.176;6.002;2023-02-17T03:50:42;57.45;;;25.33;;
54517;SDS011;40423;53.176;6.002;2023-02-17T03:53:09;53.97;;;25.17;;
54517;SDS011;40423;53.176;6.002;2023-02-17T03:55:36;53.15;;;25.75;;
54517;SDS011;40423;53.176;6.002;2023-02-17T03:58:01;55.97;;;26.38;;
54517;SDS011;40423;53.176;6.002;2023-02-17T04:00:28;60.65;;;26.73;;
54517;SDS011;40423;53.176;6.002;2023-02-17T04:02:54;56.33;;;25.33;;
54517;SDS011;40423;53.176;6.002;2023-02-17T04:05:21;56.20;;;27.83;;
54517;SDS011;40423;53.176;6.002;2023-02-17T04:07:47;51.70;;;27.13;;
54517;SDS011;40423;53.176;6.002;2023-02-17T04:10:14;56.53;;;26.70;;
54517;SDS011;40423;53.176;6.002;2023-02-17T04:12:40;57.78;;;27.38;;
54517;SDS011;40423;53.176;6.002;2023-02-17T04:15:06;55.53;;;26.65;;
54517;SDS011;40423;53.176;6.002;2023-02-17T04:17:34;57.15;;;27.55;;
54517;SDS011;40423;53.176;6.002;2023-02-17T04:20:01;67.80;;;29.15;;
54517;SDS011;40423;53.176;6.002;2023-02-17T04:22:27;61.60;;;29.70;;
54517;SDS011;40423;53.176;6.002;2023-02-17T04:24:53;57.78;;;29.27;;
54517;SDS011;40423;53.176;6.002;2023-02-17T04:27:19;60.95;;;28.60;;
54517;SDS011;40423;53.176;6.002;2023-02-17T04:29:44;63.72;;;29.63;;
54517;SDS011;40423;53.176;6.002;2023-02-17T04:32:10;70.57;;;31.23;;
54517;SDS011;40423;53.176;6.002;2023-02-17T04:34:36;58.17;;;30.02;;
54517;SDS011;40423;53.176;6.002;2023-02-17T04:37:01;64.85;;;30.05;;
54517;SDS011;40423;53.176;6.002;2023-02-17T04:39:27;57.20;;;28.65;;
54517;SDS011;40423;53.176;6.002;2023-02-17T04:41:53;66.07;;;29.38;;
54517;SDS011;40423;53.176;6.002;2023-02-17T04:44:18;58.83;;;28.50;;
54517;SDS011;40423;53.176;6.002;2023-02-17T04:46:44;68.40;;;29.65;;
54517;SDS011;40423;53.176;6.002;2023-02-17T04:49:10;61.95;;;27.95;;
54517;SDS011;40423;53.176;6.002;2023-02-17T04:51:35;62.30;;;28.98;;
54517;SDS011;40423;53.176;6.002;2023-02-17T04:54:01;57.95;;;28.50;;
54517;SDS011;40423;53.176;6.002;2023-02-17T04:56:27;51.83;;;25.15;;
54517;SDS011;40423;53.176;6.002;2023-02-17T04:58:53;69.80;;;29.25;;
54517;SDS011;40423;53.176;6.002;2023-02-17T05:01:18;58.28;;;27.42;;
54517;SDS011;40423;53.176;6.002;2023-02-17T05:03:44;57.20;;;25.88;;
54517;SDS011;40423;53.176;6.002;2023-02-17T05:06:10;57.90;;;26.17;;
54517;SDS011;40423;53.176;6.002;2023-02-17T05:08:35;55.65;;;24.75;;
54517;SDS011;40423;53.176;6.002;2023-02-17T05:11:01;52.92;;;23.40;;
54517;SDS011;40423;53.176;6.002;2023-02-17T05:13:27;52.72;;;24.80;;
54517;SDS011;40423;53.176;6.002;2023-02-17T05:15:53;59.72;;;25.55;;
54517;SDS011;40423;53.176;6.002;2023-02-17T05:18:18;49.08;;;23.92;;
54517;SDS011;40423;53.176;6.002;2023-02-17T05:20:44;55.15;;;23.75;;
54517;SDS011;40423;53.176;6.002;2023-02-17T05:23:10;55.90;;;24.30;;
54517;SDS011;40423;53.176;6.002;2023-02-17T05:25:35;55.80;;;23.13;;
54517;SDS011;40423;53.176;6.002;2023-02-17T05:28:01;49.13;;;23.52;;
54517;SDS011;40423;53.176;6.002;2023-02-17T05:30:27;48.13;;;23.23;;
54517;SDS011;40423;53.176;6.002;2023-02-17T05:32:53;51.53;;;22.85;;
54517;SDS011;40423;53.176;6.002;2023-02-17T05:35:19;46.15;;;23.42;;
54517;SDS011;40423;53.176;6.002;2023-02-17T05:37:44;52.13;;;24.08;;
54517;SDS011;40423;53.176;6.002;2023-02-17T05:40:10;51.17;;;23.30;;
54517;SDS011;40423;53.176;6.002;2023-02-17T05:42:36;45.65;;;21.92;;
54517;SDS011;40423;53.176;6.002;2023-02-17T05:45:02;56.75;;;24.70;;
54517;SDS011;40423;53.176;6.002;2023-02-17T05:47:28;46.20;;;24.10;;
54517;SDS011;40423;53.176;6.002;2023-02-17T05:49:54;52.38;;;24.05;;
54517;SDS011;40423;53.176;6.002;2023-02-17T05:52:20;44.70;;;22.70;;
54517;SDS011;40423;53.176;6.002;2023-02-17T05:54:46;47.25;;;21.92;;
54517;SDS011;40423;53.176;6.002;2023-02-17T05:57:12;52.95;;;25.60;;
54517;SDS011;40423;53.176;6.002;2023-02-17T05:59:37;49.22;;;23.73;;
54517;SDS011;40423;53.176;6.002;2023-02-17T06:02:03;51.33;;;23.98;;
54517;SDS011;40423;53.176;6.002;2023-02-17T06:04:29;50.75;;;23.40;;
54517;SDS011;40423;53.176;6.002;2023-02-17T06:06:54;50.28;;;24.15;;
54517;SDS011;40423;53.176;6.002;2023-02-17T06:09:20;48.60;;;22.95;;
54517;SDS011;40423;53.176;6.002;2023-02-17T06:11:46;51.83;;;23.63;;
54517;SDS011;40423;53.176;6.002;2023-02-17T06:14:11;49.17;;;23.25;;
54517;SDS011;40423;53.176;6.002;2023-02-17T06:16:37;49.72;;;22.92;;
54517;SDS011;40423;53.176;6.002;2023-02-17T06:19:03;48.05;;;23.00;;
54517;SDS011;40423;53.176;6.002;2023-02-17T06:21:30;44.92;;;23.25;;
54517;SDS011;40423;53.176;6.002;2023-02-17T06:23:56;51.85;;;23.80;;
54517;SDS011;40423;53.176;6.002;2023-02-17T06:26:21;49.55;;;23.10;;
54517;SDS011;40423;53.176;6.002;2023-02-17T06:28:47;46.53;;;23.05;;
54517;SDS011;40423;53.176;6.002;2023-02-17T06:31:13;48.30;;;25.48;;
54517;SDS011;40423;53.176;6.002;2023-02-17T06:33:39;51.65;;;23.67;;
54517;SDS011;40423;53.176;6.002;2023-02-17T06:36:05;49.50;;;24.42;;
54517;SDS011;40423;53.176;6.002;2023-02-17T06:38:31;49.60;;;24.25;;
54517;SDS011;40423;53.176;6.002;2023-02-17T06:40:57;49.47;;;22.80;;
54517;SDS011;40423;53.176;6.002;2023-02-17T06:43:22;46.65;;;23.70;;
54517;SDS011;40423;53.176;6.002;2023-02-17T06:45:48;44.15;;;23.45;;
54517;SDS011;40423;53.176;6.002;2023-02-17T06:48:14;51.55;;;22.70;;
54517;SDS011;40423;53.176;6.002;2023-02-17T06:50:39;51.40;;;23.85;;
54517;SDS011;40423;53.176;6.002;2023-02-17T06:53:05;45.63;;;23.42;;
54517;SDS011;40423;53.176;6.002;2023-02-17T06:55:31;52.63;;;22.98;;
54517;SDS011;40423;53.176;6.002;2023-02-17T06:57:59;44.42;;;22.58;;
54517;SDS011;40423;53.176;6.002;2023-02-17T07:00:25;44.35;;;22.77;;
54517;SDS011;40423;53.176;6.002;2023-02-17T07:02:51;51.40;;;22.30;;
54517;SDS011;40423;53.176;6.002;2023-02-17T07:05:17;51.67;;;24.55;;
54517;SDS011;40423;53.176;6.002;2023-02-17T07:07:43;47.13;;;22.25;;
54517;SDS011;40423;53.176;6.002;2023-02-17T07:10:09;47.63;;;23.08;;
54517;SDS011;40423;53.176;6.002;2023-02-17T07:12:35;45.30;;;23.20;;
54517;SDS011;40423;53.176;6.002;2023-02-17T07:15:00;55.00;;;24.38;;
54517;SDS011;40423;53.176;6.002;2023-02-17T07:17:26;51.92;;;23.25;;
54517;SDS011;40423;53.176;6.002;2023-02-17T07:19:52;45.42;;;23.98;;
54517;SDS011;40423;53.176;6.002;2023-02-17T07:22:17;47.67;;;21.80;;
54517;SDS011;40423;53.176;6.002;2023-02-17T07:24:43;47.90;;;22.20;;
54517;SDS011;40423;53.176;6.002;2023-02-17T07:27:09;47.63;;;21.50;;
54517;SDS011;40423;53.176;6.002;2023-02-17T07:29:35;47.95;;;22.25;;
54517;SDS011;40423;53.176;6.002;2023-02-17T07:32:00;39.55;;;21.65;;
54517;SDS011;40423;53.176;6.002;2023-02-17T07:34:26;47.42;;;21.77;;
54517;SDS011;40423;53.176;6.002;2023-02-17T07:36:52;48.03;;;20.63;;
54517;SDS011;40423;53.176;6.002;2023-02-17T07:39:17;43.33;;;21.00;;
54517;SDS011;40423;53.176;6.002;2023-02-17T07:41:43;47.42;;;22.85;;
54517;SDS011;40423;53.176;6.002;2023-02-17T07:44:09;46.92;;;21.08;;
54517;SDS011;40423;53.176;6.002;2023-02-17T07:46:35;40.83;;;20.67;;
54517;SDS011;40423;53.176;6.002;2023-02-17T07:49:03;45.92;;;20.70;;
54517;SDS011;40423;53.176;6.002;2023-02-17T07:51:30;45.20;;;19.67;;
54517;SDS011;40423;53.176;6.002;2023-02-17T07:53:56;37.38;;;19.27;;
54517;SDS011;40423;53.176;6.002;2023-02-17T07:56:22;50.78;;;20.40;;
54517;SDS011;40423;53.176;6.002;2023-02-17T07:58:48;32.10;;;18.90;;
54517;SDS011;40423;53.176;6.002;2023-02-17T08:01:16;42.97;;;19.02;;
54517;SDS011;40423;53.176;6.002;2023-02-17T08:03:46;37.58;;;18.92;;
54517;SDS011;40423;53.176;6.002;2023-02-17T08:06:13;41.35;;;17.73;;
54517;SDS011;40423;53.176;6.002;2023-02-17T08:08:41;39.42;;;17.23;;
54517;SDS011;40423;53.176;6.002;2023-02-17T08:11:26;38.47;;;18.63;;
54517;SDS011;40423;53.176;6.002;2023-02-17T08:14:11;40.05;;;18.80;;
54517;SDS011;40423;53.176;6.002;2023-02-17T08:16:36;38.22;;;18.50;;
54517;SDS011;40423;53.176;6.002;2023-02-17T08:19:02;34.60;;;15.98;;
54517;SDS011;40423;53.176;6.002;2023-02-17T08:21:28;33.75;;;16.10;;
54517;SDS011;40423;53.176;6.002;2023-02-17T08:23:54;30.45;;;15.85;;
54517;SDS011;40423;53.176;6.002;2023-02-17T08:26:20;35.55;;;15.73;;
54517;SDS011;40423;53.176;6.002;2023-02-17T08:28:47;36.60;;;15.80;;
54517;SDS011;40423;53.176;6.002;2023-02-17T08:33:45;29.90;;;14.48;;
54517;SDS011;40423;53.176;6.002;2023-02-17T08:36:11;27.20;;;13.48;;
54517;SDS011;40423;53.176;6.002;2023-02-17T08:38:37;31.67;;;13.45;;
54517;SDS011;40423;53.176;6.002;2023-02-17T08:41:14;24.98;;;12.00;;
54517;SDS011;40423;53.176;6.002;2023-02-17T08:43:41;28.65;;;12.35;;
54517;SDS011;40423;53.176;6.002;2023-02-17T08:46:08;30.52;;;13.65;;
54517;SDS011;40423;53.176;6.002;2023-02-17T08:48:35;29.17;;;11.77;;
54517;SDS011;40423;53.176;6.002;2023-02-17T08:51:01;31.10;;;11.38;;
54517;SDS011;40423;53.176;6.002;2023-02-17T08:53:28;25.90;;;11.98;;
54517;SDS011;40423;53.176;6.002;2023-02-17T08:55:53;22.92;;;10.00;;
54517;SDS011;40423;53.176;6.002;2023-02-17T08:58:19;25.38;;;10.60;;
54517;SDS011;40423;53.176;6.002;2023-02-17T09:00:45;22.38;;;10.07;;
54517;SDS011;40423;53.176;6.002;2023-02-17T09:03:11;23.38;;;9.45;;
54517;SDS011;40423;53.176;6.002;2023-02-17T09:05:36;18.48;;;9.07;;
54517;SDS011;40423;53.176;6.002;2023-02-17T09:08:02;26.75;;;10.70;;
54517;SDS011;40423;53.176;6.002;2023-02-17T09:10:28;19.40;;;9.38;;
54517;SDS011;40423;53.176;6.002;2023-02-17T09:12:54;18.08;;;8.98;;
54517;SDS011;40423;53.176;6.002;2023-02-17T09:15:20;21.75;;;9.43;;
54517;SDS011;40423;53.176;6.002;2023-02-17T09:17:46;23.40;;;9.73;;
54517;SDS011;40423;53.176;6.002;2023-02-17T09:20:12;26.40;;;10.10;;
54517;SDS011;40423;53.176;6.002;2023-02-17T09:22:37;25.05;;;9.80;;
54517;SDS011;40423;53.176;6.002;2023-02-17T09:25:03;24.05;;;8.98;;
54517;SDS011;40423;53.176;6.002;2023-02-17T09:27:30;22.15;;;9.45;;
54517;SDS011;40423;53.176;6.002;2023-02-17T09:29:56;21.95;;;8.65;;
54517;SDS011;40423;53.176;6.002;2023-02-17T09:32:22;20.52;;;8.77;;
54517;SDS011;40423;53.176;6.002;2023-02-17T09:34:47;18.98;;;8.77;;
54517;SDS011;40423;53.176;6.002;2023-02-17T09:37:19;17.48;;;7.47;;
54517;SDS011;40423;53.176;6.002;2023-02-17T09:39:46;23.75;;;9.05;;
54517;SDS011;40423;53.176;6.002;2023-02-17T09:42:16;21.10;;;9.13;;
54517;SDS011;40423;53.176;6.002;2023-02-17T09:44:45;18.70;;;8.65;;
54517;SDS011;40423;53.176;6.002;2023-02-17T09:47:17;21.25;;;7.70;;
54517;SDS011;40423;53.176;6.002;2023-02-17T09:49:50;20.23;;;6.72;;
54517;SDS011;40423;53.176;6.002;2023-02-17T09:55:02;21.27;;;7.40;;
54517;SDS011;40423;53.176;6.002;2023-02-17T09:57:50;18.23;;;6.68;;
54517;SDS011;40423;53.176;6.002;2023-02-17T10:00:33;16.60;;;7.40;;
54517;SDS011;40423;53.176;6.002;2023-02-17T10:03:04;19.80;;;8.52;;
54517;SDS011;40423;53.176;6.002;2023-02-17T10:05:39;18.30;;;7.63;;
54517;SDS011;40423;53.176;6.002;2023-02-17T10:08:11;19.15;;;7.28;;
54517;SDS011;40423;53.176;6.002;2023-02-17T10:10:58;18.73;;;7.18;;
54517;SDS011;40423;53.176;6.002;2023-02-17T10:13:45;19.55;;;7.60;;
54517;SDS011;40423;53.176;6.002;2023-02-17T10:16:14;17.80;;;6.30;;
54517;SDS011;40423;53.176;6.002;2023-02-17T10:18:49;17.23;;;7.28;;
54517;SDS011;40423;53.176;6.002;2023-02-17T10:21:24;18.88;;;7.05;;
54517;SDS011;40423;53.176;6.002;2023-02-17T10:24:10;19.70;;;6.47;;
54517;SDS011;40423;53.176;6.002;2023-02-17T10:32:22;15.75;;;5.57;;
54517;SDS011;40423;53.176;6.002;2023-02-17T10:37:47;15.52;;;6.38;;
54517;SDS011;40423;53.176;6.002;2023-02-17T10:40:18;17.17;;;5.97;;
54517;SDS011;40423;53.176;6.002;2023-02-17T10:42:46;19.00;;;5.78;;
54517;SDS011;40423;53.176;6.002;2023-02-17T10:47:58;18.77;;;5.45;;
54517;SDS011;40423;53.176;6.002;2023-02-17T10:50:31;22.17;;;5.38;;
54517;SDS011;40423;53.176;6.002;2023-02-17T10:52:58;17.88;;;6.13;;
54517;SDS011;40423;53.176;6.002;2023-02-17T10:55:28;14.68;;;5.15;;
54517;SDS011;40423;53.176;6.002;2023-02-17T11:00:53;16.42;;;4.80;;
54517;SDS011;40423;53.176;6.002;2023-02-17T11:03:25;17.90;;;5.55;;
54517;SDS011;40423;53.176;6.002;2023-02-17T11:05:53;16.48;;;5.20;;
54517;SDS011;40423;53.176;6.002;2023-02-17T11:16:41;15.80;;;4.65;;
54517;SDS011;40423;53.176;6.002;2023-02-17T11:19:29;16.60;;;4.47;;
54517;SDS011;40423;53.176;6.002;2023-02-17T11:22:00;17.45;;;4.50;;
54517;SDS011;40423;53.176;6.002;2023-02-17T11:24:28;16.77;;;4.25;;
54517;SDS011;40423;53.176;6.002;2023-02-17T11:26:59;14.10;;;4.05;;
54517;SDS011;40423;53.176;6.002;2023-02-17T11:29:28;15.63;;;4.20;;
54517;SDS011;40423;53.176;6.002;2023-02-17T11:31:56;12.90;;;3.60;;
54517;SDS011;40423;53.176;6.002;2023-02-17T11:34:27;23.67;;;4.82;;
54517;SDS011;40423;53.176;6.002;2023-02-17T11:37:05;15.65;;;4.40;;
54517;SDS011;40423;53.176;6.002;2023-02-17T11:39:49;16.52;;;4.15;;
54517;SDS011;40423;53.176;6.002;2023-02-17T11:42:21;13.52;;;3.75;;
54517;SDS011;40423;53.176;6.002;2023-02-17T11:44:53;21.70;;;4.78;;
54517;SDS011;40423;53.176;6.002;2023-02-17T11:52:48;13.55;;;2.83;;
54517;SDS011;40423;53.176;6.002;2023-02-17T11:55:22;15.07;;;3.53;;
54517;SDS011;40423;53.176;6.002;2023-02-17T11:58:03;16.17;;;4.03;;
54517;SDS011;40423;53.176;6.002;2023-02-17T12:06:02;10.57;;;2.80;;
54517;SDS011;40423;53.176;6.002;2023-02-17T12:11:43;15.80;;;3.78;;
54517;SDS011;40423;53.176;6.002;2023-02-17T12:16:39;21.00;;;4.43;;
54517;SDS011;40423;53.176;6.002;2023-02-17T12:36:07;16.75;;;3.72;;
54517;SDS011;40423;53.176;6.002;2023-02-17T12:38:44;15.30;;;3.92;;
54517;SDS011;40423;53.176;6.002;2023-02-17T12:43:55;14.77;;;3.60;;
54517;SDS011;40423;53.176;6.002;2023-02-17T12:46:28;16.67;;;3.40;;
54517;SDS011;40423;53.176;6.002;2023-02-17T12:49:04;15.43;;;3.45;;
54517;SDS011;40423;53.176;6.002;2023-02-17T12:51:40;12.73;;;4.00;;
54517;SDS011;40423;53.176;6.002;2023-02-17T13:02:05;12.55;;;3.25;;
54517;SDS011;40423;53.176;6.002;2023-02-17T13:04:35;18.95;;;4.28;;
54517;SDS011;40423;53.176;6.002;2023-02-17T13:09:43;17.02;;;3.80;;
54517;SDS011;40423;53.176;6.002;2023-02-17T13:14:46;16.95;;;4.00;;
54517;SDS011;40423;53.176;6.002;2023-02-17T13:17:23;21.70;;;4.22;;
54517;SDS011;40423;53.176;6.002;2023-02-17T13:22:42;22.38;;;3.97;;
54517;SDS011;40423;53.176;6.002;2023-02-17T13:25:59;21.42;;;4.35;;
54517;SDS011;40423;53.176;6.002;2023-02-17T13:27:59;16.10;;;3.67;;
54517;SDS011;40423;53.176;6.002;2023-02-17T13:30:37;15.73;;;3.75;;
54517;SDS011;40423;53.176;6.002;2023-02-17T13:33:06;18.85;;;3.95;;
54517;SDS011;40423;53.176;6.002;2023-02-17T13:35:50;17.48;;;3.95;;
54517;SDS011;40423;53.176;6.002;2023-02-17T13:38:28;16.88;;;3.75;;
54517;SDS011;40423;53.176;6.002;2023-02-17T13:40:57;13.95;;;3.97;;
54517;SDS011;40423;53.176;6.002;2023-02-17T13:43:26;17.35;;;3.63;;
54517;SDS011;40423;53.176;6.002;2023-02-17T13:46:01;18.40;;;4.47;;
54517;SDS011;40423;53.176;6.002;2023-02-17T13:48:33;18.73;;;4.35;;
54517;SDS011;40423;53.176;6.002;2023-02-17T13:51:07;24.48;;;5.53;;
54517;SDS011;40423;53.176;6.002;2023-02-17T13:53:49;21.52;;;4.15;;
54517;SDS011;40423;53.176;6.002;2023-02-17T13:56:23;16.67;;;3.97;;
54517;SDS011;40423;53.176;6.002;2023-02-17T13:58:51;16.88;;;3.67;;
54517;SDS011;40423;53.176;6.002;2023-02-17T14:01:18;18.58;;;4.63;;
54517;SDS011;40423;53.176;6.002;2023-02-17T14:03:54;22.83;;;4.40;;
54517;SDS011;40423;53.176;6.002;2023-02-17T14:06:25;17.75;;;4.45;;
54517;SDS011;40423;53.176;6.002;2023-02-17T14:08:53;21.90;;;4.47;;
54517;SDS011;40423;53.176;6.002;2023-02-17T14:11:22;15.63;;;4.05;;
54517;SDS011;40423;53.176;6.002;2023-02-17T14:13:50;15.57;;;5.07;;
54517;SDS011;40423;53.176;6.002;2023-02-17T14:16:34;14.95;;;4.03;;
54517;SDS011;40423;53.176;6.002;2023-02-17T14:19:02;23.30;;;4.50;;
54517;SDS011;40423;53.176;6.002;2023-02-17T14:21:28;16.00;;;4.00;;
54517;SDS011;40423;53.176;6.002;2023-02-17T14:23:55;13.15;;;3.85;;
54517;SDS011;40423;53.176;6.002;2023-02-17T14:29:08;16.42;;;4.28;;
54517;SDS011;40423;53.176;6.002;2023-02-17T14:31:35;18.02;;;5.32;;
54517;SDS011;40423;53.176;6.002;2023-02-17T14:34:05;15.35;;;4.18;;
54517;SDS011;40423;53.176;6.002;2023-02-17T14:36:37;13.38;;;3.25;;
54517;SDS011;40423;53.176;6.002;2023-02-17T14:39:07;16.10;;;3.42;;
54517;SDS011;40423;53.176;6.002;2023-02-17T14:41:38;13.48;;;3.28;;
54517;SDS011;40423;53.176;6.002;2023-02-17T14:44:03;16.35;;;4.22;;
54517;SDS011;40423;53.176;6.002;2023-02-17T14:46:30;13.98;;;3.83;;
54517;SDS011;40423;53.176;6.002;2023-02-17T14:48:56;17.17;;;4.28;;
54517;SDS011;40423;53.176;6.002;2023-02-17T14:51:23;18.42;;;3.33;;
54517;SDS011;40423;53.176;6.002;2023-02-17T14:53:50;19.73;;;4.25;;
54517;SDS011;40423;53.176;6.002;2023-02-17T14:58:50;19.65;;;4.65;;
54517;SDS011;40423;53.176;6.002;2023-02-17T15:01:20;14.63;;;3.63;;
54517;SDS011;40423;53.176;6.002;2023-02-17T15:03:47;19.90;;;4.00;;
54517;SDS011;40423;53.176;6.002;2023-02-17T15:06:16;16.92;;;3.83;;
54517;SDS011;40423;53.176;6.002;2023-02-17T15:08:44;19.50;;;4.50;;
54517;SDS011;40423;53.176;6.002;2023-02-17T15:13:51;11.98;;;2.92;;
54517;SDS011;40423;53.176;6.002;2023-02-17T15:16:17;20.50;;;3.92;;
54517;SDS011;40423;53.176;6.002;2023-02-17T15:18:43;18.08;;;3.72;;
54517;SDS011;40423;53.176;6.002;2023-02-17T15:23:43;17.80;;;3.67;;
54517;SDS011;40423;53.176;6.002;2023-02-17T15:26:09;15.18;;;3.17;;
54517;SDS011;40423;53.176;6.002;2023-02-17T15:28:36;15.48;;;3.97;;
54517;SDS011;40423;53.176;6.002;2023-02-17T15:31:02;24.65;;;4.63;;
54517;SDS011;40423;53.176;6.002;2023-02-17T15:33:28;15.65;;;3.47;;
54517;SDS011;40423;53.176;6.002;2023-02-17T15:35:53;18.25;;;4.38;;
54517;SDS011;40423;53.176;6.002;2023-02-17T15:38:19;16.42;;;4.25;;
54517;SDS011;40423;53.176;6.002;2023-02-17T15:40:45;14.52;;;3.20;;
54517;SDS011;40423;53.176;6.002;2023-02-17T15:43:12;20.50;;;3.78;;
54517;SDS011;40423;53.176;6.002;2023-02-17T15:45:41;21.95;;;4.95;;
54517;SDS011;40423;53.176;6.002;2023-02-17T15:48:19;22.17;;;3.90;;
54517;SDS011;40423;53.176;6.002;2023-02-17T15:50:48;21.33;;;5.57;;
54517;SDS011;40423;53.176;6.002;2023-02-17T15:53:14;19.20;;;6.15;;
54517;SDS011;40423;53.176;6.002;2023-02-17T15:55:39;22.92;;;10.02;;
54517;SDS011;40423;53.176;6.002;2023-02-17T15:58:08;20.90;;;4.28;;
54517;SDS011;40423;53.176;6.002;2023-02-17T16:00:41;18.48;;;5.45;;
54517;SDS011;40423;53.176;6.002;2023-02-17T16:03:13;22.95;;;7.82;;
54517;SDS011;40423;53.176;6.002;2023-02-17T16:05:39;21.08;;;6.97;;
54517;SDS011;40423;53.176;6.002;2023-02-17T16:08:06;13.98;;;3.65;;
54517;SDS011;40423;53.176;6.002;2023-02-17T16:10:32;19.05;;;5.10;;
54517;SDS011;40423;53.176;6.002;2023-02-17T16:12:59;18.52;;;3.30;;
54517;SDS011;40423;53.176;6.002;2023-02-17T16:15:27;18.92;;;3.10;;
54517;SDS011;40423;53.176;6.002;2023-02-17T16:17:55;20.67;;;3.15;;
54517;SDS011;40423;53.176;6.002;2023-02-17T16:20:29;16.85;;;3.35;;
54517;SDS011;40423;53.176;6.002;2023-02-17T16:22:59;16.88;;;3.05;;
54517;SDS011;40423;53.176;6.002;2023-02-17T16:25:25;19.33;;;5.57;;
54517;SDS011;40423;53.176;6.002;2023-02-17T16:27:53;17.73;;;3.95;;
54517;SDS011;40423;53.176;6.002;2023-02-17T16:30:24;18.33;;;4.68;;
54517;SDS011;40423;53.176;6.002;2023-02-17T16:32:59;16.45;;;4.53;;
54517;SDS011;40423;53.176;6.002;2023-02-17T16:35:26;20.25;;;4.43;;